Time;durP1;ratioP1;P1;durP2;ratioP2;P2;SDS_P1;SDS_P2;PMS_P1;PMS_P2;Temp;Humidity;BMP_temperature;BMP_pressure;BME280_temperature;BME280_humidity;BME280_pressure;Samples;Min_cycle;Max_cycle;Signal;HPM_P1;HPM_P2
2023/10/01 00:00:42;;;;;;;11.20;3.92;;;;;;;12.47;74.35;101900.66;7395813;19;20003;-68
2023/10/01 00:03:14;;;;;;;9.10;4.07;;;;;;;12.47;74.36;101900.66;7398697;19;20015;-68
2023/10/01 00:05:43;;;;;;;9.57;4.30;;;;;;;12.49;74.40;101893.59;7398606;19;20443;-68
2023/10/01 00:08:12;;;;;;;8.90;4.32;;;;;;;12.50;74.43;101900.59;7395614;19;20489;-67
2023/10/01 00:10:41;;;;;;;9.43;3.95;;;;;;;12.51;74.39;101889.19;7398143;19;20098;-68
2023/10/01 00:13:10;;;;;;;9.63;4.05;;;;;;;12.52;74.47;101890.06;7398066;19;20010;-66
2023/10/01 00:15:39;;;;;;;7.13;3.97;;;;;;;12.52;74.47;101883.03;7397972;19;20022;-67
2023/10/01 00:18:08;;;;;;;12.63;4.47;;;;;;;12.53;74.33;101881.28;7396417;19;20377;-67
2023/10/01 00:20:40;;;;;;;10.27;3.70;;;;;;;12.53;74.43;101881.28;7396408;19;20015;-68
2023/10/01 00:23:08;;;;;;;9.85;3.65;;;;;;;12.53;74.44;101883.91;7396055;19;20014;-69
2023/10/01 00:25:38;;;;;;;9.57;3.55;;;;;;;12.53;74.22;101876.88;7397233;19;20006;-68
2023/10/01 00:28:08;;;;;;;6.05;3.25;;;;;;;12.54;74.43;101875.97;7396133;19;20385;-68
2023/10/01 00:30:36;;;;;;;13.07;4.63;;;;;;;12.54;74.41;101875.97;7395490;19;20006;-68
2023/10/01 00:33:07;;;;;;;14.15;4.78;;;;;;;12.54;74.53;101878.63;7397180;19;20011;-68
2023/10/01 00:35:40;;;;;;;19.73;5.80;;;;;;;12.54;74.46;101886.50;7396925;19;20481;-68
2023/10/01 00:38:16;;;;;;;10.37;3.60;;;;;;;12.55;74.40;101885.63;7396465;19;20022;-68
2023/10/01 00:40:45;;;;;;;13.73;4.18;;;;;;;12.53;74.51;101868.97;7395798;19;20793;-68
2023/10/01 00:43:14;;;;;;;10.63;4.20;;;;;;;12.53;74.49;101871.59;7397014;19;20010;-67
2023/10/01 00:45:44;;;;;;;8.82;4.47;;;;;;;12.52;74.51;101863.72;7396944;19;20014;-67
2023/10/01 00:48:13;;;;;;;8.90;3.97;;;;;;;12.53;74.55;101873.38;7395754;19;20049;-67
2023/10/01 00:50:45;;;;;;;8.18;3.97;;;;;;;12.52;74.63;101869.00;7394577;19;20537;-68
2023/10/01 00:53:14;;;;;;;10.75;4.10;;;;;;;12.51;74.80;101876.03;7395372;19;20070;-69
2023/10/01 00:55:43;;;;;;;13.30;4.22;;;;;;;12.50;74.79;101862.91;7396565;19;20078;-69
2023/10/01 00:58:18;;;;;;;9.80;4.07;;;;;;;12.47;74.94;101858.53;7395055;19;20081;-68
2023/10/01 01:00:47;;;;;;;11.98;4.60;;;;;;;12.45;74.94;101860.31;7391853;19;20548;-68
2023/10/01 01:03:22;;;;;;;10.63;3.97;;;;;;;12.44;74.92;101866.44;7394347;19;20508;-67
2023/10/01 01:06:12;;;;;;;10.02;3.78;;;;;;;12.42;75.19;101857.69;7395920;19;20010;-68
2023/10/01 01:08:52;;;;;;;6.85;3.50;;;;;;;12.42;74.93;101852.44;7394163;19;20011;-68
2023/10/01 01:11:21;;;;;;;8.35;3.63;;;;;;;12.39;75.08;101852.47;7394129;19;20107;-68
2023/10/01 01:13:50;;;;;;;10.35;3.75;;;;;;;12.36;75.40;101848.13;7396486;19;20010;-67
2023/10/01 01:16:20;;;;;;;12.63;4.10;;;;;;;12.37;75.33;101849.88;7395648;19;20529;-68
2023/10/01 01:18:51;;;;;;;8.27;3.72;;;;;;;12.36;75.41;101848.13;7394200;19;20015;-67
2023/10/01 01:21:23;;;;;;;7.00;3.65;;;;;;;12.36;75.34;101852.53;7393297;19;20480;-67
2023/10/01 01:23:54;;;;;;;7.35;3.33;;;;;;;12.34;75.67;101843.78;7395175;19;20347;-68
2023/10/01 01:26:23;;;;;;;9.77;3.58;;;;;;;12.34;75.59;101843.78;7393967;19;20420;-68
2023/10/01 01:28:51;;;;;;;7.82;3.33;;;;;;;12.33;75.64;101852.56;7393495;19;20014;-68
2023/10/01 01:31:26;;;;;;;12.10;4.30;;;;;;;12.35;75.63;101848.16;7395572;19;20069;-67
2023/10/01 01:33:56;;;;;;;11.35;4.47;;;;;;;12.35;75.76;101845.53;7394221;19;20037;-67
2023/10/01 01:36:24;;;;;;;9.98;3.58;;;;;;;12.36;75.76;101836.75;7395007;19;20015;-67
2023/10/01 01:39:12;;;;;;;8.90;3.50;;;;;;;12.35;75.91;101830.59;7393835;19;20094;-68
2023/10/01 01:41:42;;;;;;;12.25;3.47;;;;;;;12.36;75.77;101837.59;7394088;19;20025;-68
2023/10/01 01:44:14;;;;;;;7.47;3.83;;;;;;;12.38;76.04;101837.56;7395246;19;20371;-67
2023/10/01 01:46:47;;;;;;;8.75;3.35;;;;;;;12.38;76.01;101833.19;7393067;19;20002;-67
2023/10/01 01:49:18;;;;;;;13.03;3.50;;;;;;;12.39;75.75;101834.91;7393301;19;20031;-68
2023/10/01 01:51:57;;;;;;;9.48;3.90;;;;;;;12.40;76.00;101833.16;7395521;19;20014;-68
2023/10/01 01:54:30;;;;;;;9.50;3.60;;;;;;;12.40;75.99;101833.16;7393613;19;20018;-67
2023/10/01 01:57:13;;;;;;;;;;;;;;;12.41;75.93;101827.03;7395186;19;20442;-68
2023/10/01 01:59:43;;;;;;;9.90;3.45;;;;;;;12.40;75.64;101833.16;7394251;19;20342;-68
2023/10/01 02:02:13;;;;;;;9.07;3.78;;;;;;;12.42;75.82;101828.75;7392914;19;20010;-68
2023/10/01 02:04:58;;;;;;;8.85;3.72;;;;;;;12.43;75.95;101827.00;7392823;19;20019;-68
2023/10/01 02:07:28;;;;;;;9.10;3.85;;;;;;;12.46;75.83;101832.22;7392118;19;20487;-68
2023/10/01 02:09:59;;;;;;;10.73;4.40;;;;;;;12.46;75.92;101838.38;7392624;19;20033;-67
2023/10/01 02:12:30;;;;;;;11.90;4.22;;;;;;;12.47;75.96;101832.22;7399936;19;20430;-67
2023/10/01 02:14:58;;;;;;;10.07;4.47;;;;;;;12.49;75.83;101838.31;7401721;19;20078;-67
2023/10/01 02:17:29;;;;;;;10.35;4.45;;;;;;;12.50;75.78;101844.47;7401159;19;20018;-68
2023/10/01 02:19:58;;;;;;;9.48;5.18;;;;;;;12.51;75.97;101840.91;7401656;19;20018;-68
2023/10/01 02:22:27;;;;;;;12.65;5.22;;;;;;;12.49;75.96;101827.78;7399833;19;20011;-67
2023/10/01 02:25:00;;;;;;;11.63;5.00;;;;;;;12.50;75.95;101828.69;7401250;19;20371;-68
2023/10/01 02:27:41;;;;;;;13.02;5.78;;;;;;;12.49;76.03;101812.00;7398362;19;20031;-68
2023/10/01 02:30:15;;;;;;;15.13;5.85;;;;;;;12.50;76.04;101818.16;7401722;19;20010;-68
2023/10/01 02:33:15;;;;;;;17.35;6.05;;;;;;;12.50;76.00;101812.88;7401759;19;20018;-68
2023/10/01 02:35:41;;;;;;;17.52;6.43;;;;;;;12.50;75.99;101821.63;7400793;19;20007;-69
2023/10/01 02:38:36;;;;;;;13.52;6.50;;;;;;;12.52;75.86;101822.50;7399391;19;20010;-67
2023/10/01 02:40:57;;;;;;;11.30;5.82;;;;;;;12.52;75.82;101813.72;7399282;19;20374;-68
2023/10/01 02:43:33;;;;;;;12.38;6.82;;;;;;;12.52;75.80;101811.97;7401052;19;20015;-68
2023/10/01 02:46:02;;;;;;;13.25;7.38;;;;;;;12.53;75.98;101797.91;7400424;19;20028;-68
2023/10/01 02:48:31;;;;;;;15.30;8.27;;;;;;;12.53;75.83;101803.16;7398072;19;20015;-67
2023/10/01 02:51:13;;;;;;;18.73;7.95;;;;;;;12.54;75.83;101804.91;7400840;19;20051;-67
2023/10/01 02:54:01;;;;;;;19.05;8.98;;;;;;;12.54;75.64;101804.91;7401098;19;20039;-68
2023/10/01 02:56:32;;;;;;;18.10;8.60;;;;;;;12.55;75.70;101808.44;7401074;19;20093;-68
2023/10/01 02:59:08;;;;;;;18.85;8.80;;;;;;;12.56;75.71;101812.78;7398020;19;20010;-68
2023/10/01 03:01:37;;;;;;;16.92;8.77;;;;;;;12.57;75.62;101821.56;7398312;19;20015;-67
2023/10/01 03:04:10;;;;;;;18.00;8.68;;;;;;;12.55;75.66;101813.69;7397864;19;20022;-67
2023/10/01 03:06:42;;;;;;;22.58;9.63;;;;;;;12.55;75.80;101808.44;7398274;19;20074;-67
2023/10/01 03:09:22;;;;;;;18.65;8.25;;;;;;;12.55;75.72;101811.91;7397813;19;20018;-67
2023/10/01 03:11:53;;;;;;;16.20;8.20;;;;;;;12.54;75.66;101802.28;7399803;19;20492;-67
2023/10/01 03:14:26;;;;;;;19.58;8.15;;;;;;;12.53;75.55;101803.16;7400505;19;20014;-67
2023/10/01 03:16:58;;;;;;;20.98;9.20;;;;;;;12.54;75.52;101798.78;7399395;19;20011;-67
2023/10/01 03:19:26;;;;;;;16.00;8.20;;;;;;;12.53;75.67;101800.53;7397396;19;20048;-67
2023/10/01 03:24:53;;;;;;;19.27;7.93;;;;;;;12.53;75.46;101803.16;7392921;19;20029;-67
2023/10/01 03:27:25;;;;;;;17.48;7.80;;;;;;;12.52;75.33;101801.44;7396105;19;20011;-67
2023/10/01 03:30:18;;;;;;;13.50;9.18;;;;;;;12.54;75.32;101799.66;7399200;19;20014;-68
2023/10/01 03:32:46;;;;;;;20.50;10.18;;;;;;;12.54;75.50;101799.66;7398879;19;20024;-66
2023/10/01 03:35:20;;;;;;;19.35;8.80;;;;;;;12.54;75.35;101802.28;7399010;19;20006;-68
2023/10/01 03:38:09;;;;;;;;;;;;;;;12.55;75.58;101813.69;7398085;19;20019;-68
2023/10/01 03:40:58;;;;;;;20.92;9.10;;;;;;;12.53;75.21;101818.94;7398253;19;19910;-67
2023/10/01 03:43:32;;;;;;;17.75;8.32;;;;;;;12.52;75.36;101822.50;7397006;19;20017;-68
2023/10/01 03:46:13;;;;;;;20.50;9.48;;;;;;;12.53;75.52;101812.84;7399423;19;20018;-68
2023/10/01 03:51:28;;;;;;;18.50;7.82;;;;;;;12.52;75.51;101795.28;7398891;19;20029;-68
2023/10/01 03:53:59;;;;;;;14.80;7.40;;;;;;;12.51;75.62;101794.44;7396252;19;20002;-67
2023/10/01 03:56:32;;;;;;;15.00;7.25;;;;;;;12.52;75.46;101790.03;7398253;19;20007;-67
2023/10/01 03:59:02;;;;;;;16.30;7.70;;;;;;;12.52;75.32;101779.50;7396136;19;20010;-67
2023/10/01 04:01:58;;;;;;;11.90;6.82;;;;;;;12.53;75.37;101784.72;7397174;19;20078;-68
2023/10/01 04:04:27;;;;;;;14.63;7.03;;;;;;;12.54;75.17;101786.47;7397779;19;20010;-68
2023/10/01 04:06:59;;;;;;;15.40;6.80;;;;;;;12.54;75.20;101775.94;7398106;19;20373;-66
2023/10/01 04:09:28;;;;;;;16.00;6.20;;;;;;;12.54;75.14;101773.31;7398568;19;20026;-68
2023/10/01 04:12:18;;;;;;;13.25;7.10;;;;;;;12.58;75.06;101773.28;7398023;19;20014;-67
2023/10/01 04:14:48;;;;;;;16.05;7.40;;;;;;;12.58;75.11;101781.19;7398559;19;20097;-68
2023/10/01 04:17:20;;;;;;;23.27;9.85;;;;;;;12.59;75.17;101785.56;7397677;19;20020;-68
2023/10/01 04:19:57;;;;;;;13.73;8.52;;;;;;;12.57;75.05;101782.94;7397747;19;20014;-67
2023/10/01 04:22:25;;;;;;;17.17;8.32;;;;;;;12.60;75.02;101787.28;7395600;19;20082;-68
2023/10/01 04:25:10;;;;;;;14.20;7.63;;;;;;;12.61;74.97;101789.03;7395032;19;20086;-67
2023/10/01 04:27:41;;;;;;;;;;;;;;;12.60;75.26;101789.91;7396284;19;20011;-68
2023/10/01 04:30:12;;;;;;;13.77;6.43;;;;;;;12.60;75.24;101798.72;7396014;19;19918;-67
2023/10/01 04:32:43;;;;;;;17.80;6.38;;;;;;;12.59;75.10;101786.44;7397277;19;20018;-67
2023/10/01 04:35:17;;;;;;;8.05;4.95;;;;;;;12.58;75.06;101787.31;7397129;19;20019;-68
2023/10/01 04:37:47;;;;;;;10.70;4.32;;;;;;;12.59;75.17;101793.47;7394989;19;20381;-68
2023/10/01 04:43:11;;;;;;;9.15;3.97;;;;;;;12.58;75.27;101794.34;7392652;19;20022;-68
2023/10/01 04:45:40;;;;;;;9.48;4.20;;;;;;;12.58;75.04;101782.06;7397367;19;20013;-68
2023/10/01 04:48:22;;;;;;;11.82;4.65;;;;;;;12.57;75.34;101782.06;7395568;19;20581;-67
2023/10/01 04:50:53;;;;;;;13.82;4.55;;;;;;;12.57;75.35;101797.88;7395497;19;20021;-68
2023/10/01 04:53:22;;;;;;;8.10;4.05;;;;;;;12.55;75.36;101798.75;7394697;19;20026;-68
2023/10/01 04:56:00;;;;;;;9.63;4.45;;;;;;;12.53;75.42;101797.91;7394910;19;20014;-68
2023/10/01 04:58:32;;;;;;;9.82;4.88;;;;;;;12.52;75.60;101798.81;7395034;19;20017;-68
2023/10/01 05:01:01;;;;;;;11.25;4.20;;;;;;;12.53;75.31;101797.91;7394225;19;20493;-68
2023/10/01 05:03:41;;;;;;;9.45;4.15;;;;;;;12.52;75.49;101800.56;7396256;19;20040;-68
2023/10/01 05:06:14;;;;;;;9.98;4.00;;;;;;;12.52;75.41;101795.28;7394052;19;20485;-68
2023/10/01 05:08:43;;;;;;;9.40;4.20;;;;;;;12.50;75.53;101797.09;7394842;19;20078;-68
2023/10/01 05:11:13;;;;;;;9.43;3.80;;;;;;;12.54;75.60;101806.69;7396061;19;20015;-68
2023/10/01 05:13:42;;;;;;;11.13;4.13;;;;;;;12.53;75.64;101797.91;7396041;19;20467;-68
2023/10/01 05:16:12;;;;;;;8.55;4.05;;;;;;;12.53;75.72;101804.94;7395588;19;20501;-68
2023/10/01 05:18:45;;;;;;;8.75;3.88;;;;;;;12.53;75.50;101799.66;7394537;19;20016;-68
2023/10/01 05:21:14;;;;;;;7.82;3.95;;;;;;;12.54;75.44;101804.06;7395712;19;20497;-67
2023/10/01 05:23:43;;;;;;;10.80;4.35;;;;;;;12.55;75.48;101790.00;7394216;19;20010;-69
2023/10/01 05:26:12;;;;;;;7.68;4.10;;;;;;;12.54;75.53;101797.00;7395338;19;20011;-69
2023/10/01 05:28:46;;;;;;;6.88;3.55;;;;;;;12.54;75.35;101799.66;7393841;19;20027;-69
2023/10/01 05:31:15;;;;;;;6.25;3.50;;;;;;;12.54;75.32;101798.78;7395658;19;20014;-69
2023/10/01 05:33:47;;;;;;;9.68;4.20;;;;;;;12.53;75.44;101802.31;7393310;19;20010;-68
2023/10/01 05:36:16;;;;;;;10.30;4.18;;;;;;;12.52;75.33;101806.72;7393292;19;20481;-68
2023/10/01 05:38:45;;;;;;;12.32;4.38;;;;;;;12.53;75.31;101805.78;7393745;19;20016;-68
2023/10/01 05:41:15;;;;;;;9.07;4.05;;;;;;;12.53;75.32;101811.06;7394628;19;20021;-67
2023/10/01 05:43:50;;;;;;;10.23;3.88;;;;;;;12.54;75.29;101815.44;7395706;19;20015;-69
2023/10/01 05:46:22;;;;;;;12.50;4.55;;;;;;;12.56;75.23;101812.78;7397602;19;20007;-67
2023/10/01 05:48:55;;;;;;;8.25;4.00;;;;;;;12.56;75.36;101812.78;7399965;19;20014;-67
2023/10/01 05:51:30;;;;;;;7.80;4.18;;;;;;;12.56;75.35;101804.88;7403296;19;20015;-67
2023/10/01 05:53:59;;;;;;;9.48;3.95;;;;;;;12.57;75.15;101805.78;7400156;19;20015;-66
2023/10/01 05:56:36;;;;;;;14.65;5.22;;;;;;;12.58;75.32;101802.25;7402074;19;20086;-66
2023/10/01 05:59:05;;;;;;;8.02;3.75;;;;;;;12.59;75.31;101814.53;7399296;19;20405;-68
2023/10/01 06:01:35;;;;;;;11.45;4.82;;;;;;;12.61;75.41;101813.63;7401705;19;20069;-69
2023/10/01 06:04:09;;;;;;;16.95;4.85;;;;;;;12.62;75.43;101801.31;7402342;19;20020;-68
2023/10/01 06:06:42;;;;;;;10.43;4.05;;;;;;;12.64;75.10;101799.53;7402744;19;20366;-67
2023/10/01 06:09:14;;;;;;;12.50;4.90;;;;;;;12.65;75.15;101810.03;7399026;19;20501;-67
2023/10/01 06:11:48;;;;;;;9.38;4.88;;;;;;;12.67;75.04;101810.00;7402369;19;20011;-69
2023/10/01 06:14:39;;;;;;;12.45;4.13;;;;;;;12.69;75.00;101818.78;7399778;19;20100;-67
2023/10/01 06:17:08;;;;;;;8.68;4.05;;;;;;;12.72;75.14;101818.72;7401141;19;20015;-67
2023/10/01 06:19:42;;;;;;;9.15;4.65;;;;;;;12.74;75.01;101811.69;7401831;19;20014;-67
2023/10/01 06:22:22;;;;;;;;;;;;;;;12.76;74.92;101809.88;7400975;19;20082;-67
2023/10/01 06:24:51;;;;;;;8.32;3.72;;;;;;;12.79;74.67;101809.84;7398597;19;19911;-68
2023/10/01 06:27:20;;;;;;;11.55;4.70;;;;;;;12.80;74.86;101806.34;7400457;19;20014;-67
2023/10/01 06:29:52;;;;;;;7.47;4.82;;;;;;;12.83;74.68;101816.81;7400707;19;20422;-67
2023/10/01 06:32:21;;;;;;;8.93;4.13;;;;;;;12.86;74.48;101813.25;7401847;19;20010;-66
2023/10/01 06:34:57;;;;;;;14.13;5.30;;;;;;;12.87;74.37;101807.97;7400689;19;20017;-67
2023/10/01 06:37:45;;;;;;;12.70;4.55;;;;;;;12.90;74.45;101811.47;7400740;19;20010;-67
2023/10/01 06:40:32;;;;;;;7.95;4.18;;;;;;;12.92;74.66;101797.38;7400584;19;20390;-68
2023/10/01 06:43:01;;;;;;;9.88;4.22;;;;;;;12.95;74.39;101809.63;7398100;19;20070;-67
2023/10/01 06:45:44;;;;;;;7.30;3.63;;;;;;;12.98;74.12;101815.72;7398285;19;20010;-67
2023/10/01 06:48:14;;;;;;;6.25;4.00;;;;;;;13.02;74.29;101821.81;7399567;19;20017;-67
2023/10/01 06:50:49;;;;;;;9.15;3.78;;;;;;;13.08;74.05;101815.59;7401205;19;20014;-66
2023/10/01 06:53:17;;;;;;;10.02;4.30;;;;;;;13.12;73.93;101812.88;7400400;19;20019;-67
2023/10/01 06:55:47;;;;;;;7.72;3.67;;;;;;;13.17;73.62;101811.03;7400559;19;20078;-68
2023/10/01 06:58:29;;;;;;;8.43;3.70;;;;;;;13.22;73.66;101810.09;7397735;19;20084;-68
2023/10/01 07:00:59;;;;;;;9.48;3.78;;;;;;;13.29;73.40;101798.56;7397699;19;20063;-67
2023/10/01 07:03:30;;;;;;;8.20;3.45;;;;;;;13.36;73.39;101800.22;7397511;19;20010;-68
2023/10/01 07:06:04;;;;;;;12.70;4.68;;;;;;;13.42;73.37;101792.25;7400449;19;20014;-67
2023/10/01 07:08:43;;;;;;;9.73;3.70;;;;;;;13.48;72.93;101793.91;7398394;19;20014;-66
2023/10/01 07:11:18;;;;;;;9.93;4.13;;;;;;;13.50;72.91;101792.97;7400120;19;20014;-68
2023/10/01 07:13:47;;;;;;;9.85;4.03;;;;;;;13.54;72.66;101793.78;7399452;19;20073;-67
2023/10/01 07:16:35;;;;;;;11.98;4.60;;;;;;;13.57;72.51;101792.88;7399466;19;20420;-67
2023/10/01 07:19:05;;;;;;;10.25;4.25;;;;;;;13.60;72.62;101798.09;7397097;19;20037;-67
2023/10/01 07:21:37;;;;;;;14.15;4.20;;;;;;;13.62;72.53;101801.56;7399158;19;20025;-68
2023/10/01 07:24:10;;;;;;;11.07;3.90;;;;;;;13.65;72.67;101805.03;7396651;19;20518;-67
2023/10/01 07:26:41;;;;;;;7.40;3.80;;;;;;;13.69;72.35;101805.84;7396728;19;20485;-68
2023/10/01 07:29:10;;;;;;;11.18;4.03;;;;;;;13.71;72.30;101806.69;7397140;19;20393;-69
2023/10/01 07:31:38;;;;;;;12.60;4.38;;;;;;;13.74;72.40;101809.25;7396698;19;20111;-67
2023/10/01 07:34:12;;;;;;;6.07;3.80;;;;;;;13.79;72.31;101810.06;7398849;19;20075;-68
2023/10/01 07:36:45;;;;;;;;;;;;;;;13.83;72.20;101817.00;7401636;19;20010;-67
2023/10/01 07:39:15;;;;;;;10.00;4.18;;;;;;;13.88;72.47;101822.19;7396659;19;19911;-68
2023/10/01 07:41:44;;;;;;;9.77;4.18;;;;;;;13.92;72.21;101817.75;7398576;19;20010;-67
2023/10/01 07:44:14;;;;;;;5.72;3.60;;;;;;;13.96;72.21;101815.03;7399236;19;20018;-68
2023/10/01 07:46:43;;;;;;;10.73;4.43;;;;;;;14.02;72.16;101817.53;7399289;19;20011;-66
2023/10/01 07:49:12;;;;;;;13.23;4.05;;;;;;;14.08;72.11;101813.91;7396358;19;20011;-67
2023/10/01 07:51:44;;;;;;;10.98;4.45;;;;;;;14.14;71.91;101811.16;7397409;19;20375;-66
2023/10/01 07:54:22;;;;;;;8.40;3.95;;;;;;;14.23;71.97;101807.47;7396737;19;20060;-67
2023/10/01 07:56:56;;;;;;;8.50;3.40;;;;;;;14.33;71.61;101810.75;7397979;19;20014;-67
2023/10/01 07:59:34;;;;;;;11.20;4.20;;;;;;;14.42;71.37;101810.59;7397972;19;20007;-68
2023/10/01 08:02:19;;;;;;;11.13;3.58;;;;;;;14.50;71.06;101813.06;7396148;19;20014;-68
2023/10/01 08:04:59;;;;;;;9.68;4.57;;;;;;;14.59;70.96;101819.94;7398741;19;20007;-68
2023/10/01 08:07:39;;;;;;;9.95;4.35;;;;;;;14.67;70.61;101818.00;7395936;19;20013;-68
2023/10/01 08:10:19;;;;;;;8.88;3.58;;;;;;;14.75;70.21;101824.00;7394839;19;20094;-68
2023/10/01 08:15:38;;;;;;;9.52;3.45;;;;;;;14.93;69.61;101821.88;7398592;19;20357;-67
2023/10/01 08:18:26;;;;;;;7.60;3.25;;;;;;;15.03;69.39;101809.31;7395803;19;20359;-67
2023/10/01 08:21:02;;;;;;;8.43;3.33;;;;;;;15.15;69.26;101811.66;7397890;19;20010;-67
2023/10/01 08:23:31;;;;;;;8.15;3.25;;;;;;;15.24;69.17;101814.09;7393733;19;20019;-68
2023/10/01 08:26:43;;;;;;;8.13;3.35;;;;;;;15.35;68.47;101813.81;7396688;19;20018;-68
2023/10/01 08:28:57;;;;;;;10.25;3.67;;;;;;;15.46;67.97;101817.06;7394621;19;20078;-67
2023/10/01 08:36:48;;;;;;;8.55;3.85;;;;;;;15.76;67.11;101813.69;7395492;19;20015;-66
2023/10/01 08:39:20;;;;;;;9.27;3.17;;;;;;;15.85;66.92;101820.53;7394744;19;20010;-67
2023/10/01 08:41:56;;;;;;;8.77;3.33;;;;;;;15.94;66.42;101817.63;7394249;19;20010;-67
2023/10/01 08:44:30;;;;;;;9.57;3.30;;;;;;;16.03;65.88;101808.59;7396206;19;20011;-67
2023/10/01 08:47:21;;;;;;;8.30;3.83;;;;;;;16.11;65.74;101807.47;7396620;19;20022;-68
2023/10/01 08:49:52;;;;;;;4.97;2.75;;;;;;;16.22;65.54;101809.78;7397027;19;20385;-68
2023/10/01 08:52:25;;;;;;;8.48;3.00;;;;;;;16.32;64.66;101817.50;7395596;19;20011;-67
2023/10/01 08:54:55;;;;;;;9.07;3.40;;;;;;;16.41;64.45;101820.72;7395505;19;20485;-68
2023/10/01 09:00:17;;;;;;;10.52;3.20;;;;;;;16.57;63.70;101839.69;7395859;19;20002;-67
2023/10/01 09:02:50;;;;;;;8.50;3.00;;;;;;;16.62;63.71;101842.22;7394311;19;20536;-67
2023/10/01 09:05:23;;;;;;;9.50;3.05;;;;;;;16.68;63.56;101842.03;7393871;19;20010;-67
2023/10/01 09:08:14;;;;;;;6.78;3.05;;;;;;;16.75;63.12;101838.25;7394664;19;20511;-67
2023/10/01 09:10:55;;;;;;;11.82;6.43;;;;;;;16.87;63.01;101844.09;7394765;19;20013;-68
2023/10/01 09:13:30;;;;;;;9.50;2.92;;;;;;;16.96;62.92;101829.72;7395085;19;20013;-67
2023/10/01 09:16:11;;;;;;;7.43;2.70;;;;;;;17.05;61.92;101816.22;7395917;19;20050;-68
2023/10/01 09:21:41;;;;;;;6.95;2.95;;;;;;;17.22;61.74;101815.66;7389414;19;20510;-67
2023/10/01 09:27:09;;;;;;;8.27;2.72;;;;;;;17.35;61.36;101801.06;7392149;19;20051;-66
2023/10/01 09:29:46;;;;;;;6.72;2.97;;;;;;;17.43;60.55;101808.78;7395207;19;20014;-67
2023/10/01 09:32:19;;;;;;;7.43;2.83;;;;;;;17.50;60.55;101801.47;7396195;19;20015;-68
2023/10/01 09:34:58;;;;;;;6.50;2.42;;;;;;;17.56;58.57;101811.88;7393694;19;20468;-66
2023/10/01 09:37:52;;;;;;;7.38;3.03;;;;;;;17.58;59.29;101810.03;7394910;19;20018;-66
2023/10/01 09:43:05;;;;;;;5.72;2.78;;;;;;;17.59;57.50;101801.13;7393267;19;20011;-67
2023/10/01 09:45:37;;;;;;;6.03;2.30;;;;;;;17.59;57.87;101794.06;7393195;19;20356;-67
2023/10/01 09:48:09;;;;;;;6.32;2.70;;;;;;;17.60;57.88;101794.91;7393406;19;20011;-67
2023/10/01 09:50:42;;;;;;;6.18;2.67;;;;;;;17.59;57.81;101783.44;7392701;19;20013;-67
2023/10/01 09:53:14;;;;;;;7.25;2.40;;;;;;;17.59;57.92;101788.75;7393228;19;20031;-67
2023/10/01 09:55:47;;;;;;;8.20;3.17;;;;;;;17.58;58.05;101778.19;7394416;19;20021;-67
2023/10/01 09:58:24;;;;;;;7.03;2.30;;;;;;;17.61;58.30;101774.56;7392281;19;20477;-67
2023/10/01 10:01:00;;;;;;;4.90;1.92;;;;;;;17.63;57.96;101776.25;7392690;19;20018;-67
2023/10/01 10:03:36;;;;;;;4.68;2.65;;;;;;;17.64;57.09;101775.34;7392465;19;20018;-67
2023/10/01 10:06:08;;;;;;;9.25;2.90;;;;;;;17.65;56.83;101782.34;7392389;19;20014;-67
2023/10/01 10:08:37;;;;;;;8.13;2.83;;;;;;;17.70;57.16;101771.59;7393161;19;20014;-67
2023/10/01 10:11:08;;;;;;;8.02;2.55;;;;;;;17.73;57.16;101779.44;7393347;19;20007;-68
2023/10/01 10:13:45;;;;;;;5.93;2.47;;;;;;;17.80;57.12;101780.09;7394329;19;20085;-68
2023/10/01 10:16:33;;;;;;;4.95;2.17;;;;;;;17.85;56.82;101786.09;7393921;19;20394;-68
2023/10/01 10:19:12;;;;;;;9.15;3.28;;;;;;;17.92;56.39;101782.31;7391850;19;20085;-68
2023/10/01 10:22:16;;;;;;;7.38;2.88;;;;;;;18.01;54.64;101783.81;7391090;19;20349;-69
2023/10/01 10:24:54;;;;;;;5.55;2.40;;;;;;;18.10;54.23;101779.91;7393664;19;20021;-71
2023/10/01 10:27:50;;;;;;;5.88;2.20;;;;;;;18.19;53.72;101791.06;7391894;19;20477;-69
2023/10/01 10:30:21;;;;;;;9.90;3.03;;;;;;;18.28;54.56;101784.56;7391837;19;20002;-70
2023/10/01 10:33:43;;;;;;;5.88;2.30;;;;;;;18.37;53.23;101781.56;7396351;19;20015;-69
2023/10/01 10:36:54;;;;;;;7.38;2.83;;;;;;;18.40;50.53;101784.09;7400058;19;20006;-70
2023/10/01 10:40:12;;;;;;;5.25;2.50;;;;;;;18.44;51.20;101781.31;7400461;19;20015;-70
2023/10/01 10:42:46;;;;;;;12.57;9.02;;;;;;;18.49;51.36;101784.69;7397280;19;20477;-69
2023/10/01 10:45:19;;;;;;;5.78;2.67;;;;;;;18.54;49.42;101788.88;7402397;19;20010;-69
2023/10/01 10:48:01;;;;;;;;;;;;;;;18.62;47.95;101777.09;7398589;19;20014;-70
2023/10/01 10:50:49;;;;;;;4.07;2.60;;;;;;;18.72;48.98;101784.63;7397644;19;19930;-70
2023/10/01 10:53:18;;;;;;;6.30;2.70;;;;;;;18.83;50.28;101778.00;7400918;19;20021;-72
2023/10/01 10:55:56;;;;;;;6.25;3.35;;;;;;;18.88;47.96;101774.25;7397808;19;20028;-69
2023/10/01 10:58:28;;;;;;;5.57;2.38;;;;;;;18.97;49.09;101772.16;7398845;19;20025;-70
2023/10/01 11:01:15;;;;;;;7.35;3.97;;;;;;;19.02;49.00;101788.84;7400620;19;20007;-69
2023/10/01 11:03:44;;;;;;;7.65;4.70;;;;;;;19.07;48.87;101777.97;7399054;19;20011;-69
2023/10/01 11:06:21;;;;;;;6.00;2.55;;;;;;;19.13;48.60;101777.75;7397450;19;20082;-69
2023/10/01 11:08:54;;;;;;;7.07;2.80;;;;;;;19.19;48.75;101778.34;7397903;19;20419;-69
2023/10/01 11:11:28;;;;;;;5.95;2.65;;;;;;;19.25;46.95;101779.03;7400562;19;20011;-70
2023/10/01 11:14:03;;;;;;;4.63;2.22;;;;;;;19.31;47.64;101768.09;7400047;19;20034;-70
2023/10/01 11:16:37;;;;;;;6.93;2.65;;;;;;;19.38;47.92;101764.25;7399544;19;20007;-69
2023/10/01 11:19:14;;;;;;;6.10;3.20;;;;;;;19.48;47.58;101764.75;7397300;19;20017;-69
2023/10/01 11:21:54;;;;;;;7.68;3.60;;;;;;;19.54;46.77;101760.00;7400133;19;20020;-69
2023/10/01 11:24:25;;;;;;;7.45;3.08;;;;;;;19.60;47.34;101758.00;7396682;19;20014;-70
2023/10/01 11:27:18;;;;;;;5.63;2.85;;;;;;;19.64;46.28;101757.81;7398876;19;20627;-69
2023/10/01 11:30:12;;;;;;;4.90;2.90;;;;;;;19.70;45.85;101759.34;7396845;19;20028;-69
2023/10/01 11:32:58;;;;;;;6.70;2.88;;;;;;;19.75;47.23;101754.69;7397327;19;20115;-70
2023/10/01 11:35:31;;;;;;;7.18;2.67;;;;;;;19.80;47.03;101754.47;7399805;19;20033;-69
2023/10/01 11:38:14;;;;;;;3.92;2.50;;;;;;;19.83;46.54;101749.91;7397816;19;20504;-69
2023/10/01 11:43:32;;;;;;;7.28;2.65;;;;;;;19.99;47.02;101751.88;7396268;19;20021;-69
2023/10/01 11:46:23;;;;;;;5.60;2.28;;;;;;;20.07;45.60;101752.41;7398522;19;20033;-69
2023/10/01 11:48:56;;;;;;;9.00;2.60;;;;;;;20.13;46.47;101745.91;7396684;19;20078;-69
2023/10/01 11:51:48;;;;;;;7.55;2.65;;;;;;;20.15;46.44;101739.59;7398464;19;20018;-70
2023/10/01 11:54:18;;;;;;;6.57;2.80;;;;;;;20.23;46.62;101739.22;7398130;19;20082;-69
2023/10/01 11:56:47;;;;;;;6.40;2.78;;;;;;;20.31;46.84;101737.06;7397611;19;20496;-69
2023/10/01 11:59:20;;;;;;;7.28;2.90;;;;;;;20.41;46.51;101745.50;7395619;19;20014;-69
2023/10/01 12:01:53;;;;;;;6.47;2.97;;;;;;;20.49;45.83;101754.00;7398102;19;20029;-69
2023/10/01 12:07:21;;;;;;;5.53;2.72;;;;;;;20.46;43.44;101748.81;7395057;19;20021;-69
2023/10/01 12:09:50;;;;;;;7.43;2.90;;;;;;;20.45;44.18;101762.22;7395750;19;20011;-69
2023/10/01 12:12:21;;;;;;;6.10;2.85;;;;;;;20.40;44.17;101750.91;7397640;19;20010;-69
2023/10/01 12:14:57;;;;;;;7.30;3.05;;;;;;;20.34;44.28;101749.38;7395731;19;20484;-70
2023/10/01 12:17:28;;;;;;;7.38;3.53;;;;;;;20.33;44.32;101758.31;7397514;19;20011;-68
2023/10/01 12:19:58;;;;;;;7.75;3.00;;;;;;;20.34;43.89;101752.91;7398051;19;20069;-69
2023/10/01 12:22:28;;;;;;;5.55;2.70;;;;;;;20.37;44.38;101756.38;7397744;19;20364;-70
2023/10/01 12:25:01;;;;;;;8.18;2.92;;;;;;;20.43;44.66;101753.44;7395719;19;20014;-70
2023/10/01 12:30:31;;;;;;;8.50;3.13;;;;;;;20.50;44.58;101745.06;7394401;19;20391;-69
2023/10/01 12:33:03;;;;;;;5.72;3.03;;;;;;;20.48;44.35;101754.06;7397387;19;20078;-69
2023/10/01 12:35:34;;;;;;;6.25;2.65;;;;;;;20.42;44.39;101741.91;7396965;19;20082;-69